Time;durP1;ratioP1;P1;durP2;ratioP2;P2;SDS_P1;SDS_P2;PMS_P1;PMS_P2;Temp;Humidity;BMP_temperature;BMP_pressure;BME280_temperature;BME280_humidity;BME280_pressure;Samples;Min_cycle;Max_cycle;Signal;HPM_P1;HPM_P2
2021/12/06 00:02:12;;;;;;;33.10;15.52;;;6.20;99.90;;;;;;5095175;28;20483;-74
2021/12/06 00:04:38;;;;;;;33.03;14.30;;;6.20;99.90;;;;;;5091539;28;20054;-73
2021/12/06 00:07:10;;;;;;;33.90;15.35;;;6.20;99.90;;;;;;5091213;28;20391;-73
2021/12/06 00:09:39;;;;;;;36.55;18.98;;;6.20;99.90;;;;;;5078003;28;20028;-74
2021/12/06 00:12:06;;;;;;;34.67;15.85;;;6.20;99.90;;;;;;5093007;28;20032;-72
2021/12/06 00:14:37;;;;;;;36.47;16.65;;;6.10;99.90;;;;;;5093246;28;20066;-74
2021/12/06 00:17:05;;;;;;;35.42;18.05;;;6.10;99.90;;;;;;5104346;28;20036;-73
2021/12/06 00:19:32;;;;;;;38.65;19.75;;;6.10;99.90;;;;;;5074852;28;20108;-73
2021/12/06 00:21:59;;;;;;;41.72;18.63;;;6.10;99.90;;;;;;5079060;28;20024;-73
2021/12/06 00:24:26;;;;;;;42.33;22.63;;;6.10;99.90;;;;;;5092260;28;20028;-73
2021/12/06 00:26:56;;;;;;;39.65;22.23;;;6.20;99.90;;;;;;5103018;28;20024;-73
2021/12/06 00:29:21;;;;;;;37.55;19.63;;;6.20;99.90;;;;;;5102767;28;20027;-74
2021/12/06 00:31:47;;;;;;;34.13;16.60;;;6.20;99.90;;;;;;5100821;28;20030;-76
2021/12/06 00:34:18;;;;;;;43.67;22.55;;;6.20;99.90;;;;;;5100382;28;20036;-72
2021/12/06 00:36:53;;;;;;;42.60;20.00;;;6.20;99.90;;;;;;5111474;28;20031;-73
2021/12/06 00:39:21;;;;;;;39.70;19.27;;;6.20;99.90;;;;;;5106492;28;20497;-71
2021/12/06 00:41:59;;;;;;;41.03;20.00;;;6.20;99.90;;;;;;5092730;28;20024;-74
2021/12/06 00:44:25;;;;;;;40.75;18.65;;;6.20;99.90;;;;;;5094347;28;20036;-73
2021/12/06 00:46:51;;;;;;;39.40;18.17;;;6.20;99.90;;;;;;5093663;28;20082;-72
2021/12/06 00:49:17;;;;;;;46.85;22.17;;;6.20;99.90;;;;;;5103443;28;20027;-73
2021/12/06 00:51:43;;;;;;;39.58;17.75;;;6.20;99.90;;;;;;5091139;28;20020;-74
2021/12/06 00:54:13;;;;;;;38.13;16.48;;;6.20;99.90;;;;;;5104790;28;20028;-72
2021/12/06 00:56:39;;;;;;;44.20;19.02;;;6.20;99.90;;;;;;5094664;28;20075;-76
2021/12/06 00:59:05;;;;;;;36.28;16.40;;;6.30;99.90;;;;;;5099343;28;20440;-73
2021/12/06 01:01:32;;;;;;;39.45;19.42;;;6.30;99.90;;;;;;5092683;28;20051;-75
2021/12/06 01:03:58;;;;;;;45.00;17.83;;;6.30;99.90;;;;;;5097986;28;20062;-72
2021/12/06 01:06:24;;;;;;;38.67;16.88;;;6.30;99.90;;;;;;5096611;28;20428;-72
2021/12/06 01:08:50;;;;;;;40.45;17.23;;;6.30;99.90;;;;;;5093047;28;20084;-74
2021/12/06 01:11:16;;;;;;;38.70;17.08;;;6.30;99.90;;;;;;5089702;28;20028;-74
2021/12/06 01:13:42;;;;;;;37.38;17.25;;;6.30;99.90;;;;;;5092891;28;20110;-74
2021/12/06 01:16:08;;;;;;;39.72;17.55;;;6.30;99.90;;;;;;5092275;28;20115;-74
2021/12/06 01:18:35;;;;;;;37.55;16.05;;;6.40;99.90;;;;;;5092761;28;20035;-73
2021/12/06 01:21:14;;;;;;;40.40;18.45;;;6.40;99.90;;;;;;5092745;28;20028;-73
2021/12/06 01:23:57;;;;;;;40.55;16.92;;;6.40;99.90;;;;;;5065421;28;20157;-76
2021/12/06 01:26:42;;;;;;;37.38;16.50;;;6.40;99.90;;;;;;5092993;28;20032;-76
2021/12/06 01:29:36;;;;;;;37.63;16.63;;;6.40;99.90;;;;;;5105520;28;20028;-74
2021/12/06 01:32:15;;;;;;;39.78;17.13;;;6.40;99.90;;;;;;5091676;28;20024;-73
2021/12/06 01:40:09;;;;;;;38.17;16.85;;;6.40;99.90;;;;;;5092869;28;20684;-75
2021/12/06 01:42:35;;;;;;;38.58;17.02;;;6.40;99.90;;;;;;5096468;28;20059;-74
2021/12/06 01:45:05;;;;;;;38.92;16.63;;;6.40;99.90;;;;;;5092454;28;20052;-75
2021/12/06 01:47:37;;;;;;;39.58;17.80;;;6.40;99.90;;;;;;5075800;28;20047;-74
2021/12/06 01:50:11;;;;;;;38.35;17.88;;;6.40;99.90;;;;;;5100561;28;20028;-72
2021/12/06 01:52:41;;;;;;;41.85;17.98;;;6.40;99.90;;;;;;5096943;28;20023;-73
2021/12/06 01:55:09;;;;;;;35.75;16.27;;;6.40;99.90;;;;;;5111700;28;20035;-74
2021/12/06 01:57:35;;;;;;;41.08;17.27;;;6.40;99.90;;;;;;5096519;28;20043;-73
2021/12/06 02:00:08;;;;;;;40.17;17.55;;;6.40;99.90;;;;;;5099984;28;20043;-74
2021/12/06 02:02:34;;;;;;;38.30;17.15;;;6.40;99.90;;;;;;5084488;28;20059;-74
2021/12/06 02:05:00;;;;;;;36.28;17.45;;;6.40;99.90;;;;;;5092034;28;20395;-73
2021/12/06 02:07:27;;;;;;;38.53;16.38;;;6.40;99.90;;;;;;5091668;28;20031;-74
2021/12/06 02:09:55;;;;;;;38.08;17.20;;;6.40;99.90;;;;;;5096802;28;20024;-74
2021/12/06 02:12:21;;;;;;;39.80;17.70;;;6.40;99.90;;;;;;5094698;28;20081;-71
2021/12/06 02:15:00;;;;;;;41.40;18.08;;;6.40;99.90;;;;;;5098546;28;21909;-74
2021/12/06 02:17:34;;;;;;;39.17;17.65;;;6.30;99.90;;;;;;5094208;28;20028;-74
2021/12/06 02:20:06;;;;;;;40.72;17.23;;;6.30;99.90;;;;;;5107610;28;20023;-74
2021/12/06 02:22:36;;;;;;;37.17;14.98;;;6.20;99.90;;;;;;5095349;28;20052;-74
2021/12/06 02:25:04;;;;;;;43.08;16.67;;;6.20;99.90;;;;;;5095962;28;20061;-71
2021/12/06 02:27:30;;;;;;;33.65;13.93;;;6.10;99.90;;;;;;5094010;28;20452;-72
2021/12/06 02:29:59;;;;;;;32.42;13.68;;;6.10;99.90;;;;;;5096324;28;20107;-74
2021/12/06 02:32:25;;;;;;;33.95;14.25;;;6.00;99.90;;;;;;5096339;28;20032;-73
2021/12/06 02:34:55;;;;;;;35.35;14.63;;;6.00;99.90;;;;;;5092546;28;20024;-72
2021/12/06 02:37:29;;;;;;;37.35;15.80;;;5.90;99.90;;;;;;5102018;28;20055;-72
2021/12/06 02:39:56;;;;;;;32.03;14.07;;;5.90;99.90;;;;;;5094924;28;20372;-73
2021/12/06 02:42:24;;;;;;;32.17;14.55;;;5.80;99.90;;;;;;5095591;28;20090;-73
2021/12/06 02:44:49;;;;;;;35.70;15.95;;;5.80;99.90;;;;;;5095406;28;20032;-72
2021/12/06 02:47:17;;;;;;;37.55;15.38;;;5.70;99.90;;;;;;5095093;28;20020;-72
2021/12/06 02:49:43;;;;;;;37.63;15.07;;;5.70;99.90;;;;;;5105096;28;20465;-71
2021/12/06 02:52:11;;;;;;;33.70;14.00;;;5.70;99.90;;;;;;5101583;28;20024;-71
2021/12/06 02:54:38;;;;;;;29.77;12.50;;;5.70;99.90;;;;;;5094947;28;20456;-72
2021/12/06 02:59:35;;;;;;;35.92;15.07;;;5.70;99.90;;;;;;5095645;28;20024;-72
2021/12/06 03:02:04;;;;;;;35.33;15.07;;;5.70;99.90;;;;;;5095356;28;20058;-72
2021/12/06 03:04:30;;;;;;;38.67;16.52;;;5.70;99.90;;;;;;5095487;28;20028;-72
2021/12/06 03:06:58;;;;;;;37.03;16.33;;;5.70;99.90;;;;;;5095668;28;20032;-72
2021/12/06 03:09:27;;;;;;;37.53;16.92;;;5.70;99.90;;;;;;5094928;28;20458;-73
2021/12/06 03:12:04;;;;;;;35.50;15.43;;;5.80;99.90;;;;;;5095749;28;20035;-73
2021/12/06 03:14:33;;;;;;;35.80;16.02;;;5.80;99.90;;;;;;5095274;28;20020;-72
2021/12/06 03:17:00;;;;;;;38.10;16.10;;;5.80;99.90;;;;;;5095284;28;20040;-73
2021/12/06 03:19:26;;;;;;;36.22;17.13;;;5.80;99.90;;;;;;5096055;28;20046;-72
2021/12/06 03:21:52;;;;;;;39.65;16.80;;;5.80;99.90;;;;;;5102027;28;20459;-72
2021/12/06 03:24:18;;;;;;;40.08;16.77;;;5.80;99.90;;;;;;5111980;28;20044;-72
2021/12/06 03:26:48;;;;;;;37.38;15.88;;;5.80;99.90;;;;;;5095053;28;20051;-72
2021/12/06 03:29:13;;;;;;;39.92;15.75;;;5.80;99.90;;;;;;5111546;28;20024;-72
2021/12/06 03:31:39;;;;;;;40.25;16.10;;;5.80;99.90;;;;;;5097689;28;20028;-73
2021/12/06 03:34:06;;;;;;;41.45;17.60;;;5.80;99.90;;;;;;5113711;28;20035;-72
2021/12/06 03:36:34;;;;;;;38.83;16.70;;;5.80;99.90;;;;;;5114656;28;20402;-73
2021/12/06 03:39:02;;;;;;;45.83;17.98;;;5.80;99.90;;;;;;5114839;28;20107;-73
2021/12/06 03:41:28;;;;;;;40.70;17.20;;;5.80;99.90;;;;;;5113525;28;20096;-72
2021/12/06 03:43:56;;;;;;;43.55;18.95;;;5.80;99.90;;;;;;5100599;28;20058;-72
2021/12/06 03:46:24;;;;;;;43.08;17.65;;;5.80;99.90;;;;;;5104536;28;20036;-71
2021/12/06 03:48:50;;;;;;;40.63;18.13;;;5.80;99.90;;;;;;5094450;28;20020;-72
2021/12/06 03:51:16;;;;;;;38.80;17.20;;;5.80;99.90;;;;;;5094430;28;20028;-72
2021/12/06 03:53:43;;;;;;;44.70;18.17;;;5.80;99.90;;;;;;5094179;28;20050;-72
2021/12/06 03:56:09;;;;;;;43.72;17.75;;;5.80;99.90;;;;;;5095060;28;20104;-71
2021/12/06 03:58:35;;;;;;;40.40;17.20;;;5.80;99.90;;;;;;5094471;28;20114;-71
2021/12/06 04:01:03;;;;;;;51.53;18.75;;;5.70;99.90;;;;;;5094439;28;20032;-71
2021/12/06 04:03:31;;;;;;;41.95;18.65;;;5.70;99.90;;;;;;5093543;28;20112;-73
2021/12/06 04:05:57;;;;;;;45.80;19.60;;;5.70;99.90;;;;;;5075712;28;20115;-72
2021/12/06 04:08:26;;;;;;;45.75;20.00;;;5.80;99.90;;;;;;5101508;28;20107;-72
2021/12/06 04:10:52;;;;;;;46.50;18.98;;;5.80;99.90;;;;;;5075929;28;20357;-71
2021/12/06 04:13:18;;;;;;;42.47;18.35;;;5.90;99.90;;;;;;5094273;28;20035;-71
2021/12/06 04:15:44;;;;;;;49.22;18.77;;;5.90;99.90;;;;;;5076885;28;20035;-73
2021/12/06 04:18:11;;;;;;;40.47;17.50;;;5.90;99.90;;;;;;5113838;28;20111;-73
2021/12/06 04:20:37;;;;;;;47.85;18.45;;;5.90;99.90;;;;;;5093549;28;20390;-74
2021/12/06 04:23:06;;;;;;;48.40;19.42;;;5.90;99.90;;;;;;5094036;28;20024;-74
2021/12/06 04:25:33;;;;;;;48.45;19.67;;;5.80;99.90;;;;;;5108344;28;20092;-72
2021/12/06 04:28:04;;;;;;;47.17;18.77;;;5.80;99.90;;;;;;5096315;28;20039;-73
2021/12/06 04:30:30;;;;;;;52.42;20.80;;;5.70;99.90;;;;;;5109714;28;20024;-74
2021/12/06 04:32:56;;;;;;;48.47;19.60;;;5.80;99.90;;;;;;5104304;28;20016;-75
2021/12/06 04:35:23;;;;;;;44.15;18.58;;;5.80;99.90;;;;;;5102841;28;20036;-74
2021/12/06 04:37:48;;;;;;;41.25;16.98;;;5.80;99.90;;;;;;5093726;28;20044;-74
2021/12/06 04:40:15;;;;;;;46.95;19.80;;;5.80;99.90;;;;;;5092491;28;20070;-71
2021/12/06 04:42:41;;;;;;;49.03;20.10;;;5.70;99.90;;;;;;5093584;28;20052;-72
2021/12/06 04:45:10;;;;;;;48.58;19.95;;;5.80;99.90;;;;;;5112077;28;20028;-73
2021/12/06 04:47:35;;;;;;;40.70;16.42;;;5.80;99.90;;;;;;5094940;28;20036;-72
2021/12/06 04:50:02;;;;;;;43.40;19.58;;;5.70;99.90;;;;;;5092421;28;20079;-72
2021/12/06 04:52:28;;;;;;;48.75;20.63;;;5.60;99.90;;;;;;5087656;28;20023;-72
2021/12/06 04:54:57;;;;;;;45.38;19.58;;;5.60;99.90;;;;;;5094060;28;20092;-73
2021/12/06 04:57:31;;;;;;;48.22;19.55;;;5.60;99.90;;;;;;5092022;28;20500;-73
2021/12/06 05:00:03;;;;;;;47.25;18.17;;;5.50;99.90;;;;;;5093456;28;20031;-72
2021/12/06 05:02:34;;;;;;;50.75;19.90;;;5.40;99.90;;;;;;5093512;28;20048;-72
2021/12/06 05:05:04;;;;;;;50.30;19.90;;;5.30;99.90;;;;;;5093394;28;20020;-71
2021/12/06 05:07:35;;;;;;;51.50;20.40;;;5.20;99.90;;;;;;5093600;28;20024;-72
2021/12/06 05:10:03;;;;;;;48.60;19.85;;;5.10;99.90;;;;;;5093477;28;20103;-72
2021/12/06 05:12:30;;;;;;;55.13;20.88;;;5.00;99.90;;;;;;5092749;28;20027;-72
2021/12/06 05:14:57;;;;;;;57.90;20.70;;;5.00;99.90;;;;;;5092896;28;20458;-73
2021/12/06 05:17:23;;;;;;;57.80;21.30;;;4.90;99.90;;;;;;5093421;28;20039;-72
2021/12/06 05:19:49;;;;;;;53.50;20.58;;;4.90;99.90;;;;;;5093268;28;20107;-72
2021/12/06 05:22:15;;;;;;;56.08;20.80;;;4.80;99.90;;;;;;5093312;28;20031;-73
2021/12/06 05:24:42;;;;;;;59.63;21.95;;;4.80;99.90;;;;;;5091574;28;20036;-72
2021/12/06 05:27:07;;;;;;;58.97;22.05;;;4.70;99.90;;;;;;5092878;28;20101;-72
2021/12/06 05:29:34;;;;;;;59.42;22.83;;;4.70;99.90;;;;;;5093167;28;20399;-72
2021/12/06 05:32:00;;;;;;;58.60;20.92;;;4.70;99.90;;;;;;5096489;28;20024;-72
2021/12/06 05:34:34;;;;;;;50.53;18.40;;;4.70;99.90;;;;;;5097215;28;20360;-71
2021/12/06 05:37:00;;;;;;;41.10;15.93;;;4.60;99.90;;;;;;5100024;28;20476;-73
2021/12/06 05:39:30;;;;;;;61.55;21.02;;;4.60;99.90;;;;;;5093253;28;20035;-72
2021/12/06 05:42:09;;;;;;;48.53;17.25;;;4.60;99.90;;;;;;5092938;28;20032;-73
2021/12/06 05:44:35;;;;;;;55.40;19.02;;;4.50;99.90;;;;;;5094196;28;20023;-73
2021/12/06 05:47:02;;;;;;;61.20;19.85;;;4.50;99.90;;;;;;5101844;28;20032;-71
2021/12/06 05:49:35;;;;;;;72.68;22.63;;;4.50;99.90;;;;;;5103803;28;20122;-73
2021/12/06 05:52:01;;;;;;;89.40;23.38;;;4.50;99.90;;;;;;5097211;28;20119;-71
2021/12/06 05:54:28;;;;;;;79.93;21.90;;;4.50;99.90;;;;;;5096840;28;20154;-71
2021/12/06 05:56:54;;;;;;;106.60;23.38;;;4.50;99.90;;;;;;5096778;28;20047;-73
2021/12/06 05:59:21;;;;;;;70.15;21.80;;;4.60;99.90;;;;;;5096594;28;20368;-72
2021/12/06 06:01:49;;;;;;;112.22;26.35;;;4.60;99.90;;;;;;5096458;28;20071;-73
2021/12/06 06:04:14;;;;;;;89.93;24.65;;;4.60;99.90;;;;;;5096739;28;20448;-73
2021/12/06 06:06:40;;;;;;;116.35;25.30;;;4.70;99.90;;;;;;5096315;28;20047;-71
2021/12/06 06:09:07;;;;;;;79.07;22.83;;;4.80;99.90;;;;;;5097092;28;20035;-71
2021/12/06 06:11:36;;;;;;;110.72;27.83;;;4.90;99.90;;;;;;5096436;28;20036;-72
2021/12/06 06:14:04;;;;;;;116.47;26.60;;;5.00;99.90;;;;;;5096550;28;20482;-71
2021/12/06 06:16:33;;;;;;;77.38;23.73;;;5.00;99.90;;;;;;5096202;28;20124;-72
2021/12/06 06:18:59;;;;;;;81.75;21.75;;;5.10;99.90;;;;;;5094607;28;20073;-72
2021/12/06 06:21:25;;;;;;;78.80;21.85;;;5.10;99.90;;;;;;5096446;28;20482;-73
2021/12/06 06:23:51;;;;;;;114.38;26.42;;;5.10;99.90;;;;;;5096534;28;20024;-72
2021/12/06 06:26:17;;;;;;;97.63;23.27;;;5.00;99.90;;;;;;5096231;28;20028;-72
2021/12/06 06:28:45;;;;;;;96.60;23.00;;;5.00;99.90;;;;;;5096762;28;20034;-72
2021/12/06 06:31:10;;;;;;;121.88;25.15;;;5.00;99.90;;;;;;5095980;28;20028;-72
2021/12/06 06:33:36;;;;;;;67.78;21.73;;;5.00;99.90;;;;;;5096069;28;20035;-72
2021/12/06 06:36:03;;;;;;;86.38;24.90;;;5.00;99.90;;;;;;5096209;28;20059;-73
2021/12/06 06:38:29;;;;;;;62.67;19.63;;;5.00;99.90;;;;;;5096293;28;20038;-76
2021/12/06 06:40:54;;;;;;;63.72;21.30;;;5.00;99.90;;;;;;5095939;28;20383;-75
2021/12/06 06:43:20;;;;;;;135.82;28.33;;;4.90;99.90;;;;;;5096174;28;20031;-73
2021/12/06 06:45:45;;;;;;;59.78;19.63;;;4.90;99.90;;;;;;5095486;28;20052;-73
2021/12/06 06:48:12;;;;;;;76.25;24.75;;;5.00;99.90;;;;;;5095530;28;20036;-74
2021/12/06 06:50:38;;;;;;;68.28;23.42;;;5.00;99.90;;;;;;5093928;28;20024;-75
2021/12/06 06:53:04;;;;;;;120.18;29.10;;;5.00;99.90;;;;;;5095856;28;20029;-75
2021/12/06 06:55:30;;;;;;;79.35;26.90;;;5.10;99.90;;;;;;5095514;28;20020;-76
2021/12/06 06:57:56;;;;;;;78.72;24.92;;;5.20;99.90;;;;;;5094615;28;20116;-72
2021/12/06 07:00:29;;;;;;;76.18;25.70;;;5.20;99.90;;;;;;5095523;28;20027;-75
2021/12/06 07:02:55;;;;;;;99.28;25.55;;;5.20;99.90;;;;;;5095341;28;20055;-74
2021/12/06 07:05:24;;;;;;;89.13;24.98;;;5.20;99.90;;;;;;5095242;28;20460;-74
2021/12/06 07:07:50;;;;;;;71.78;23.13;;;5.20;99.90;;;;;;5095048;28;20055;-77
2021/12/06 07:10:16;;;;;;;73.60;22.60;;;5.20;99.90;;;;;;5094687;28;20548;-76
2021/12/06 07:12:46;;;;;;;64.32;17.25;;;5.20;99.90;;;;;;5095004;28;20020;-75
2021/12/06 07:15:15;;;;;;;76.15;24.77;;;5.10;99.90;;;;;;5095145;28;20020;-72
2021/12/06 07:17:40;;;;;;;66.05;22.48;;;5.00;99.90;;;;;;5095679;28;20036;-74
2021/12/06 07:20:07;;;;;;;77.18;25.30;;;5.00;99.90;;;;;;5095186;28;20082;-74
2021/12/06 07:22:33;;;;;;;121.47;28.50;;;5.00;99.90;;;;;;5095283;28;20079;-75
2021/12/06 07:24:59;;;;;;;112.45;27.83;;;5.00;99.90;;;;;;5076422;28;20479;-72
2021/12/06 07:27:24;;;;;;;80.35;24.10;;;5.00;99.90;;;;;;5079752;28;20024;-73
2021/12/06 07:29:50;;;;;;;75.03;21.75;;;5.00;99.90;;;;;;5094141;28;20445;-73
2021/12/06 07:32:16;;;;;;;57.65;16.92;;;5.00;99.90;;;;;;5094721;28;20028;-73
2021/12/06 07:34:41;;;;;;;116.65;26.15;;;4.90;99.90;;;;;;5094383;28;20024;-73
2021/12/06 07:37:07;;;;;;;112.30;22.45;;;4.70;99.90;;;;;;5094619;28;20135;-76
2021/12/06 07:39:33;;;;;;;125.63;26.30;;;4.60;99.90;;;;;;5094131;28;20073;-74
2021/12/06 07:41:59;;;;;;;140.45;28.85;;;4.60;99.90;;;;;;5094137;28;20035;-73
2021/12/06 07:44:26;;;;;;;112.13;23.38;;;4.60;99.90;;;;;;5093689;28;20820;-71
2021/12/06 07:46:52;;;;;;;82.30;19.48;;;4.60;99.90;;;;;;5093671;28;20035;-74
2021/12/06 07:49:19;;;;;;;95.35;24.45;;;4.60;99.90;;;;;;5093921;28;20545;-74
2021/12/06 07:51:45;;;;;;;101.20;25.50;;;4.50;99.90;;;;;;5087860;28;20043;-73
2021/12/06 07:54:12;;;;;;;113.60;27.33;;;4.60;99.90;;;;;;5092869;28;20032;-75
2021/12/06 07:56:39;;;;;;;119.13;25.05;;;4.60;99.90;;;;;;5091994;28;20114;-73
2021/12/06 07:59:05;;;;;;;82.03;23.67;;;4.50;99.90;;;;;;5093666;28;20058;-72
2021/12/06 08:01:31;;;;;;;90.13;23.58;;;4.50;99.90;;;;;;5104042;28;20027;-72
2021/12/06 08:03:59;;;;;;;160.60;31.05;;;4.50;99.90;;;;;;5091194;28;20031;-72
2021/12/06 08:06:25;;;;;;;135.50;29.42;;;4.50;99.90;;;;;;5075792;28;20081;-72
2021/12/06 08:08:51;;;;;;;80.20;22.90;;;4.60;99.90;;;;;;5088077;28;20099;-74
2021/12/06 08:11:19;;;;;;;76.43;21.65;;;4.60;99.90;;;;;;5092720;28;20577;-73
2021/12/06 08:13:47;;;;;;;137.93;30.08;;;4.70;99.90;;;;;;5093239;28;20031;-74
2021/12/06 08:16:20;;;;;;;85.25;26.48;;;4.70;99.90;;;;;;5093672;28;20055;-71
2021/12/06 08:18:47;;;;;;;118.82;29.80;;;4.70;99.90;;;;;;5093708;28;20024;-74
2021/12/06 08:21:14;;;;;;;96.43;25.52;;;4.70;99.90;;;;;;5094115;28;20154;-73
2021/12/06 08:23:40;;;;;;;115.32;25.75;;;4.60;99.90;;;;;;5092647;28;20036;-74
2021/12/06 08:26:08;;;;;;;127.43;28.63;;;4.60;99.90;;;;;;5093641;28;20036;-72
2021/12/06 08:28:35;;;;;;;106.57;25.00;;;4.60;99.90;;;;;;5094035;28;20020;-73
2021/12/06 08:31:02;;;;;;;89.22;22.70;;;4.60;99.90;;;;;;5093811;28;20016;-73
2021/12/06 08:33:28;;;;;;;92.72;26.55;;;4.60;99.90;;;;;;5075593;28;20024;-74
2021/12/06 08:35:55;;;;;;;137.80;29.10;;;4.70;99.90;;;;;;5093765;28;20417;-74
2021/12/06 08:38:25;;;;;;;64.95;21.10;;;4.70;99.90;;;;;;5093362;28;20083;-71
2021/12/06 08:40:56;;;;;;;56.72;18.95;;;4.70;99.90;;;;;;5093310;28;20024;-74
2021/12/06 08:43:22;;;;;;;49.35;15.27;;;4.60;99.90;;;;;;5093492;28;20426;-73
2021/12/06 08:45:49;;;;;;;83.03;20.13;;;4.50;99.90;;;;;;5093345;28;20024;-72
2021/12/06 08:48:18;;;;;;;123.10;24.75;;;4.40;99.90;;;;;;5093037;28;20036;-72
2021/12/06 08:50:45;;;;;;;72.95;23.75;;;4.40;99.90;;;;;;5092494;28;20028;-73
2021/12/06 08:53:11;;;;;;;88.43;22.98;;;4.40;99.90;;;;;;5093190;28;20375;-73
2021/12/06 08:55:38;;;;;;;62.50;19.90;;;4.40;99.90;;;;;;5108988;28;20035;-71
2021/12/06 08:58:04;;;;;;;79.50;22.80;;;4.50;99.90;;;;;;5091228;28;20028;-72
2021/12/06 09:00:32;;;;;;;97.72;29.05;;;4.50;99.90;;;;;;5093124;28;20034;-74
2021/12/06 09:02:58;;;;;;;85.35;28.23;;;4.50;99.90;;;;;;5089328;28;20492;-74
2021/12/06 09:05:29;;;;;;;116.53;31.23;;;4.60;99.90;;;;;;5104174;28;20051;-73
2021/12/06 09:07:55;;;;;;;63.63;21.48;;;4.70;99.90;;;;;;5093272;28;20035;-73
2021/12/06 09:10:21;;;;;;;88.13;27.63;;;4.70;99.90;;;;;;5092801;28;20028;-70
2021/12/06 09:12:48;;;;;;;77.03;23.63;;;4.80;99.90;;;;;;5093559;28;20085;-72
2021/12/06 09:15:17;;;;;;;95.07;28.13;;;4.80;99.90;;;;;;5092683;28;20026;-74
2021/12/06 09:17:43;;;;;;;132.82;31.45;;;4.80;99.90;;;;;;5093084;28;20036;-74
2021/12/06 09:20:11;;;;;;;99.72;27.95;;;5.00;99.90;;;;;;5092019;28;20036;-74
2021/12/06 09:22:38;;;;;;;67.18;24.70;;;5.10;99.90;;;;;;5093147;28;20034;-71
2021/12/06 09:25:05;;;;;;;121.63;30.08;;;5.10;99.90;;;;;;5092792;28;20127;-71
2021/12/06 09:27:34;;;;;;;176.77;35.78;;;5.20;99.90;;;;;;5092755;28;20024;-72
2021/12/06 09:30:00;;;;;;;45.75;19.83;;;5.20;99.90;;;;;;5093282;28;20039;-72
2021/12/06 09:32:25;;;;;;;57.95;18.48;;;5.10;99.90;;;;;;5092520;28;20032;-74
2021/12/06 09:34:56;;;;;;;53.67;19.00;;;5.00;99.90;;;;;;5092924;28;20046;-74
2021/12/06 09:37:22;;;;;;;167.65;33.90;;;4.90;99.90;;;;;;5092752;28;20032;-73
2021/12/06 09:39:48;;;;;;;76.32;24.92;;;4.90;99.90;;;;;;5093083;28;20380;-72
2021/12/06 09:42:14;;;;;;;77.13;26.70;;;4.80;99.90;;;;;;5092297;28;20020;-72
2021/12/06 09:44:39;;;;;;;46.13;18.08;;;4.80;99.90;;;;;;5092883;28;20032;-74
2021/12/06 09:47:05;;;;;;;62.08;21.58;;;4.80;99.90;;;;;;5092026;28;20032;-74
2021/12/06 09:49:32;;;;;;;75.90;22.23;;;4.70;99.90;;;;;;5105541;28;20476;-72
2021/12/06 09:52:01;;;;;;;78.90;24.25;;;4.70;99.90;;;;;;5092939;28;20099;-72
2021/12/06 09:54:30;;;;;;;74.25;24.10;;;4.60;99.90;;;;;;5092885;28;20028;-71
2021/12/06 09:56:57;;;;;;;80.65;22.13;;;4.70;99.90;;;;;;5092868;28;20388;-74
2021/12/06 09:59:25;;;;;;;57.80;20.15;;;4.70;99.90;;;;;;5092609;28;20036;-70
2021/12/06 10:02:02;;;;;;;76.07;25.38;;;4.70;99.90;;;;;;5092029;28;20044;-74
2021/12/06 10:04:30;;;;;;;79.10;21.80;;;4.70;99.90;;;;;;5092043;28;20024;-72
2021/12/06 10:06:57;;;;;;;153.98;30.80;;;4.70;99.90;;;;;;5092044;28;20028;-74
2021/12/06 10:09:24;;;;;;;75.07;22.73;;;4.80;99.90;;;;;;5092757;28;20023;-72
2021/12/06 10:11:51;;;;;;;77.25;23.42;;;4.80;99.90;;;;;;5092461;28;20107;-72
2021/12/06 10:14:17;;;;;;;148.65;32.33;;;4.90;99.90;;;;;;5091944;28;20028;-71
2021/12/06 10:16:44;;;;;;;86.13;28.33;;;4.90;99.90;;;;;;5093303;28;20044;-74
2021/12/06 10:19:12;;;;;;;88.55;27.25;;;5.00;99.90;;;;;;5103766;28;20028;-73
2021/12/06 10:21:39;;;;;;;70.60;25.95;;;5.20;99.90;;;;;;5092575;28;20069;-74
2021/12/06 10:24:11;;;;;;;48.78;17.38;;;5.20;99.90;;;;;;5092525;28;20031;-74
2021/12/06 10:26:37;;;;;;;;;;;5.20;99.90;;;;;;5089767;28;20031;-74
2021/12/06 10:29:19;;;;;;;67.60;25.13;;;5.20;99.90;;;;;;5094222;28;20342;-74
2021/12/06 10:31:45;;;;;;;80.68;26.42;;;5.20;99.90;;;;;;5092315;28;20024;-73
2021/12/06 10:34:25;;;;;;;72.20;25.30;;;5.20;99.90;;;;;;5095532;28;20036;-72
2021/12/06 10:36:52;;;;;;;82.07;28.48;;;5.20;99.90;;;;;;5090608;28;20450;-73
2021/12/06 10:39:18;;;;;;;80.47;28.05;;;5.40;99.90;;;;;;5076762;28;20078;-72
2021/12/06 10:41:49;;;;;;;71.70;26.50;;;5.30;99.90;;;;;;5095681;28;20032;-72
2021/12/06 10:44:15;;;;;;;63.73;24.13;;;5.40;99.90;;;;;;5095524;28;20025;-74
2021/12/06 10:46:51;;;;;;;75.05;28.13;;;5.30;99.90;;;;;;5094477;28;20028;-75
2021/12/06 10:49:26;;;;;;;68.50;23.40;;;5.30;99.90;;;;;;5094742;28;20030;-71
2021/12/06 10:51:52;;;;;;;67.13;23.77;;;5.30;99.90;;;;;;5094063;28;20017;-75
2021/12/06 10:54:30;;;;;;;71.90;25.73;;;5.30;99.90;;;;;;5095257;28;20028;-73
2021/12/06 10:56:59;;;;;;;57.22;21.88;;;5.30;99.90;;;;;;5095585;28;20046;-74
2021/12/06 10:59:31;;;;;;;73.45;25.65;;;5.30;99.90;;;;;;5095209;28;20115;-72
2021/12/06 11:02:06;;;;;;;61.10;22.25;;;5.40;99.90;;;;;;5090252;28;20044;-72
2021/12/06 11:04:32;;;;;;;63.85;21.67;;;5.50;99.90;;;;;;5092665;28;20032;-72
2021/12/06 11:07:05;;;;;;;78.10;26.10;;;5.60;99.90;;;;;;5094700;28;20043;-73
2021/12/06 11:09:32;;;;;;;69.72;25.95;;;5.60;99.90;;;;;;5089990;28;20039;-72
2021/12/06 11:12:00;;;;;;;63.25;25.13;;;5.60;99.90;;;;;;5094867;28;20020;-73
2021/12/06 11:14:38;;;;;;;55.35;22.23;;;5.80;99.90;;;;;;5094541;28;20400;-73
2021/12/06 11:17:08;;;;;;;59.60;23.63;;;5.90;99.90;;;;;;5094788;28;20036;-74
2021/12/06 11:19:34;;;;;;;63.85;24.95;;;5.90;99.90;;;;;;5085766;28;20038;-74
2021/12/06 11:22:01;;;;;;;60.22;23.27;;;6.00;99.90;;;;;;5094722;28;20038;-73
2021/12/06 11:24:53;;;;;;;51.97;20.38;;;6.00;99.90;;;;;;5094505;28;20098;-73
2021/12/06 11:27:27;;;;;;;49.83;20.63;;;6.20;99.90;;;;;;5087220;28;20238;-74
2021/12/06 11:30:00;;;;;;;45.70;18.42;;;6.30;99.90;;;;;;5094351;28;20028;-73
2021/12/06 11:32:30;;;;;;;46.90;20.27;;;6.40;99.90;;;;;;5094707;28;20028;-72
2021/12/06 11:35:08;;;;;;;36.45;15.27;;;6.40;99.90;;;;;;5094827;28;20052;-73
2021/12/06 11:37:40;;;;;;;47.95;20.58;;;6.50;99.90;;;;;;5093775;28;20039;-73
2021/12/06 11:40:24;;;;;;;42.45;18.00;;;6.50;99.90;;;;;;5105676;28;20112;-73
2021/12/06 11:43:12;;;;;;;47.72;19.80;;;6.50;99.90;;;;;;5078278;28;20032;-73
2021/12/06 11:45:50;;;;;;;43.85;18.42;;;6.50;99.90;;;;;;5076352;28;20038;-74
2021/12/06 11:48:18;;;;;;;40.58;18.40;;;6.40;99.90;;;;;;5094042;28;20135;-73
2021/12/06 11:50:57;;;;;;;38.80;16.70;;;6.40;99.90;;;;;;5094556;28;20024;-72
2021/12/06 11:53:27;;;;;;;47.60;19.73;;;6.30;99.90;;;;;;5093866;28;20032;-73
2021/12/06 11:55:57;;;;;;;37.13;16.40;;;6.20;99.90;;;;;;5103609;28;20051;-75
2021/12/06 11:58:52;;;;;;;42.60;16.38;;;6.10;99.90;;;;;;5093062;28;20360;-71
2021/12/06 12:01:26;;;;;;;44.05;18.13;;;6.00;99.90;;;;;;5082276;28;20040;-74
2021/12/06 12:04:00;;;;;;;44.30;16.50;;;6.00;99.90;;;;;;5088946;28;20510;-72
2021/12/06 12:06:29;;;;;;;46.30;17.45;;;5.90;99.90;;;;;;5093470;28;20034;-73
2021/12/06 12:09:18;;;;;;;40.08;17.20;;;5.80;99.90;;;;;;5093108;28;20020;-73
2021/12/06 12:11:59;;;;;;;38.22;13.18;;;5.80;99.90;;;;;;5093614;28;20024;-74
2021/12/06 12:14:40;;;;;;;44.95;18.23;;;5.80;99.90;;;;;;5093478;28;20376;-72
2021/12/06 12:17:23;;;;;;;42.87;16.90;;;5.70;99.90;;;;;;5088997;28;20067;-71
2021/12/06 12:19:59;;;;;;;40.40;17.02;;;5.60;99.90;;;;;;5087057;28;20036;-73
2021/12/06 12:22:29;;;;;;;47.95;18.85;;;5.60;99.90;;;;;;5093754;28;20028;-71
2021/12/06 12:24:59;;;;;;;48.50;17.83;;;5.70;99.90;;;;;;5093342;28;20012;-72
2021/12/06 12:27:55;;;;;;;36.58;12.80;;;5.70;99.90;;;;;;5094084;28;20345;-73
2021/12/06 12:30:21;;;;;;;38.17;16.58;;;5.70;99.90;;;;;;5092870;28;20023;-72
2021/12/06 12:32:50;;;;;;;42.67;16.45;;;5.60;99.90;;;;;;5097047;28;20104;-72
2021/12/06 12:35:16;;;;;;;35.55;13.95;;;5.60;99.90;;;;;;5072874;28;20337;-73
2021/12/06 12:37:44;;;;;;;46.92;18.98;;;5.60;99.90;;;;;;5091026;28;20039;-72
2021/12/06 12:40:32;;;;;;;46.63;18.77;;;5.60;99.90;;;;;;5090777;28;20043;-72
2021/12/06 12:43:03;;;;;;;40.38;17.20;;;5.50;99.90;;;;;;5077439;28;20153;-72
2021/12/06 12:45:50;;;;;;;43.75;18.92;;;5.60;99.90;;;;;;5091495;28;20024;-72
2021/12/06 12:48:23;;;;;;;52.33;19.77;;;5.60;99.90;;;;;;5093014;28;20020;-72
2021/12/06 12:51:15;;;;;;;45.88;19.42;;;5.60;99.90;;;;;;5092767;28;20024;-72
2021/12/06 12:54:00;;;;;;;42.28;18.23;;;5.70;99.90;;;;;;5085116;28;20039;-71